sensor_id;sensor_type;location;lat;lon;timestamp;pressure;altitude;pressure_sealevel;temperature;humidity
21988;BME280;11158;53.404;-1.510;2022-11-15T00:00:52;99074.81;;;14.10;59.98
21988;BME280;11158;53.404;-1.510;2022-11-15T00:03:21;99066.91;;;14.49;59.13
21988;BME280;11158;53.404;-1.510;2022-11-15T00:05:47;99072.84;;;14.63;58.42
21988;BME280;11158;53.404;-1.510;2022-11-15T00:08:13;99067.56;;;14.39;58.17
21988;BME280;11158;53.404;-1.510;2022-11-15T00:10:39;99072.19;;;14.56;57.82
21988;BME280;11158;53.404;-1.510;2022-11-15T00:13:10;99067.44;;;14.63;56.26
21988;BME280;11158;53.404;-1.510;2022-11-15T00:15:37;99056.97;;;14.50;57.29
21988;BME280;11158;53.404;-1.510;2022-11-15T00:18:04;99063.25;;;15.01;56.13
21988;BME280;11158;53.404;-1.510;2022-11-15T00:20:33;99056.16;;;15.34;55.05
21988;BME280;11158;53.404;-1.510;2022-11-15T00:22:59;99049.28;;;15.43;54.65
21988;BME280;11158;53.404;-1.510;2022-11-15T00:25:25;99052.44;;;15.57;54.13
21988;BME280;11158;53.404;-1.510;2022-11-15T00:27:55;99046.47;;;15.55;54.45
21988;BME280;11158;53.404;-1.510;2022-11-15T00:30:21;99049.69;;;15.13;55.00
21988;BME280;11158;53.404;-1.510;2022-11-15T00:32:46;99034.03;;;14.93;55.13
21988;BME280;11158;53.404;-1.510;2022-11-15T00:35:12;99031.84;;;14.90;55.13
21988;BME280;11158;53.404;-1.510;2022-11-15T00:37:38;99026.34;;;14.51;56.00
21988;BME280;11158;53.404;-1.510;2022-11-15T00:40:03;99027.63;;;14.31;56.22
21988;BME280;11158;53.404;-1.510;2022-11-15T00:42:31;99017.28;;;13.94;56.95
21988;BME280;11158;53.404;-1.510;2022-11-15T00:44:56;99011.47;;;13.86;57.40
21988;BME280;11158;53.404;-1.510;2022-11-15T00:47:22;99009.97;;;13.49;58.49
21988;BME280;11158;53.404;-1.510;2022-11-15T00:49:48;99009.38;;;13.47;58.12
21988;BME280;11158;53.404;-1.510;2022-11-15T00:52:14;99006.72;;;13.12;59.30
21988;BME280;11158;53.404;-1.510;2022-11-15T00:54:40;99003.78;;;12.78;60.35
21988;BME280;11158;53.404;-1.510;2022-11-15T00:57:05;99002.50;;;12.57;60.77
21988;BME280;11158;53.404;-1.510;2022-11-15T00:59:31;98991.00;;;13.04;60.03
21988;BME280;11158;53.404;-1.510;2022-11-15T01:01:56;98986.19;;;13.29;58.88
21988;BME280;11158;53.404;-1.510;2022-11-15T01:04:22;98983.06;;;12.97;59.38
21988;BME280;11158;53.404;-1.510;2022-11-15T01:06:48;98969.97;;;13.24;58.76
21988;BME280;11158;53.404;-1.510;2022-11-15T01:09:13;98968.91;;;13.37;58.51
21988;BME280;11158;53.404;-1.510;2022-11-15T01:11:39;98965.31;;;13.31;58.38
21988;BME280;11158;53.404;-1.510;2022-11-15T01:14:05;98962.84;;;13.70;57.27
21988;BME280;11158;53.404;-1.510;2022-11-15T01:16:30;98960.09;;;13.53;57.46
21988;BME280;11158;53.404;-1.510;2022-11-15T01:18:58;98958.22;;;13.66;57.25
21988;BME280;11158;53.404;-1.510;2022-11-15T01:21:25;98958.34;;;13.88;56.61
21988;BME280;11158;53.404;-1.510;2022-11-15T01:23:56;98962.91;;;13.87;56.42
21988;BME280;11158;53.404;-1.510;2022-11-15T01:26:23;98954.69;;;13.94;56.06
21988;BME280;11158;53.404;-1.510;2022-11-15T01:28:49;98947.19;;;13.79;56.06
21988;BME280;11158;53.404;-1.510;2022-11-15T01:31:17;98949.34;;;13.01;58.43
21988;BME280;11158;53.404;-1.510;2022-11-15T01:33:44;98950.75;;;13.04;58.60
21988;BME280;11158;53.404;-1.510;2022-11-15T01:36:13;98938.00;;;13.34;57.69
21988;BME280;11158;53.404;-1.510;2022-11-15T01:38:39;98939.91;;;13.51;57.03
21988;BME280;11158;53.404;-1.510;2022-11-15T01:41:05;98932.13;;;13.37;57.58
21988;BME280;11158;53.404;-1.510;2022-11-15T01:43:34;98926.84;;;13.54;56.83
21988;BME280;11158;53.404;-1.510;2022-11-15T01:48:45;98929.34;;;13.73;55.88
21988;BME280;11158;53.404;-1.510;2022-11-15T01:51:12;98925.72;;;13.67;55.65
21988;BME280;11158;53.404;-1.510;2022-11-15T01:53:42;98921.09;;;13.34;57.26
21988;BME280;11158;53.404;-1.510;2022-11-15T01:56:14;98916.22;;;12.95;57.68
21988;BME280;11158;53.404;-1.510;2022-11-15T01:58:43;98914.41;;;12.49;59.70
21988;BME280;11158;53.404;-1.510;2022-11-15T02:01:11;98900.91;;;13.31;58.05
21988;BME280;11158;53.404;-1.510;2022-11-15T02:03:49;98899.50;;;13.57;56.68
21988;BME280;11158;53.404;-1.510;2022-11-15T02:06:16;98898.84;;;13.50;56.20
21988;BME280;11158;53.404;-1.510;2022-11-15T02:08:42;98893.63;;;13.72;55.81
21988;BME280;11158;53.404;-1.510;2022-11-15T02:11:09;98881.00;;;13.90;55.53
21988;BME280;11158;53.404;-1.510;2022-11-15T02:13:36;98874.38;;;14.09;54.80
21988;BME280;11158;53.404;-1.510;2022-11-15T02:16:31;98873.25;;;13.76;56.13
21988;BME280;11158;53.404;-1.510;2022-11-15T02:28:04;98856.13;;;14.11;55.04
21988;BME280;11158;53.404;-1.510;2022-11-15T02:31:05;98849.25;;;13.12;56.73
21988;BME280;11158;53.404;-1.510;2022-11-15T02:33:39;98849.16;;;13.65;56.48
21988;BME280;11158;53.404;-1.510;2022-11-15T02:36:16;98834.47;;;13.84;56.30
21988;BME280;11158;53.404;-1.510;2022-11-15T02:41:20;98824.66;;;13.44;56.74
21988;BME280;11158;53.404;-1.510;2022-11-15T02:43:57;98814.53;;;13.80;56.05
21988;BME280;11158;53.404;-1.510;2022-11-15T02:46:40;98815.41;;;13.86;55.75
21988;BME280;11158;53.404;-1.510;2022-11-15T02:49:28;98800.91;;;14.20;54.62
21988;BME280;11158;53.404;-1.510;2022-11-15T02:51:55;98806.59;;;14.41;54.41
21988;BME280;11158;53.404;-1.510;2022-11-15T02:54:23;98793.97;;;14.24;54.46
21988;BME280;11158;53.404;-1.510;2022-11-15T02:56:53;98789.19;;;14.49;54.15
21988;BME280;11158;53.404;-1.510;2022-11-15T03:07:53;98768.41;;;14.61;53.93
21988;BME280;11158;53.404;-1.510;2022-11-15T03:10:35;98764.00;;;13.77;55.76
21988;BME280;11158;53.404;-1.510;2022-11-15T03:13:26;98756.50;;;13.79;55.87
21988;BME280;11158;53.404;-1.510;2022-11-15T03:16:34;98747.69;;;14.00;55.28
21988;BME280;11158;53.404;-1.510;2022-11-15T03:19:00;98736.09;;;14.17;54.95
21988;BME280;11158;53.404;-1.510;2022-11-15T03:21:29;98729.69;;;14.01;55.08
21988;BME280;11158;53.404;-1.510;2022-11-15T03:23:58;98724.44;;;13.89;55.33
21988;BME280;11158;53.404;-1.510;2022-11-15T03:26:28;98731.44;;;13.73;55.97
21988;BME280;11158;53.404;-1.510;2022-11-15T03:29:22;98735.50;;;13.42;57.30
21988;BME280;11158;53.404;-1.510;2022-11-15T03:32:00;98721.38;;;13.64;56.79
21988;BME280;11158;53.404;-1.510;2022-11-15T03:34:31;98723.84;;;13.19;58.00
21988;BME280;11158;53.404;-1.510;2022-11-15T03:36:58;98705.72;;;13.60;56.98
21988;BME280;11158;53.404;-1.510;2022-11-15T03:39:24;98693.03;;;13.56;56.78
21988;BME280;11158;53.404;-1.510;2022-11-15T03:47:39;98706.38;;;13.51;58.10
21988;BME280;11158;53.404;-1.510;2022-11-15T03:50:11;98699.34;;;14.00;56.20
21988;BME280;11158;53.404;-1.510;2022-11-15T03:52:40;98702.97;;;13.38;57.32
21988;BME280;11158;53.404;-1.510;2022-11-15T03:55:10;98693.03;;;13.56;57.55
21988;BME280;11158;53.404;-1.510;2022-11-15T03:57:36;98693.88;;;13.56;57.36
21988;BME280;11158;53.404;-1.510;2022-11-15T04:00:05;98698.50;;;13.44;57.69
21988;BME280;11158;53.404;-1.510;2022-11-15T04:02:32;98701.97;;;13.95;56.52
21988;BME280;11158;53.404;-1.510;2022-11-15T04:04:58;98701.94;;;13.56;57.18
21988;BME280;11158;53.404;-1.510;2022-11-15T04:07:24;98712.84;;;13.21;58.38
21988;BME280;11158;53.404;-1.510;2022-11-15T04:09:49;98700.47;;;13.32;58.31
21988;BME280;11158;53.404;-1.510;2022-11-15T04:12:33;98679.25;;;13.47;58.15
21988;BME280;11158;53.404;-1.510;2022-11-15T04:15:07;98677.97;;;13.72;57.73
21988;BME280;11158;53.404;-1.510;2022-11-15T04:20:14;98667.78;;;13.52;57.76
21988;BME280;11158;53.404;-1.510;2022-11-15T04:23:00;98662.44;;;13.23;58.23
21988;BME280;11158;53.404;-1.510;2022-11-15T04:25:46;98667.03;;;13.56;57.86
21988;BME280;11158;53.404;-1.510;2022-11-15T04:28:15;98658.03;;;13.29;58.98
21988;BME280;11158;53.404;-1.510;2022-11-15T04:30:40;98666.81;;;13.80;57.07
21988;BME280;11158;53.404;-1.510;2022-11-15T04:33:06;98656.72;;;13.87;56.86
21988;BME280;11158;53.404;-1.510;2022-11-15T04:35:32;98651.56;;;13.64;57.68
21988;BME280;11158;53.404;-1.510;2022-11-15T04:37:59;98641.19;;;13.33;58.32
21988;BME280;11158;53.404;-1.510;2022-11-15T04:40:25;98646.03;;;13.53;58.22
21988;BME280;11158;53.404;-1.510;2022-11-15T04:42:50;98634.31;;;13.59;57.42
21988;BME280;11158;53.404;-1.510;2022-11-15T04:45:16;98638.13;;;13.64;57.96
21988;BME280;11158;53.404;-1.510;2022-11-15T04:47:45;98634.44;;;13.70;57.23
21988;BME280;11158;53.404;-1.510;2022-11-15T04:50:12;98638.81;;;13.37;58.49
21988;BME280;11158;53.404;-1.510;2022-11-15T04:52:43;98623.78;;;13.36;59.06
21988;BME280;11158;53.404;-1.510;2022-11-15T04:55:10;98622.03;;;13.86;57.28
21988;BME280;11158;53.404;-1.510;2022-11-15T04:57:37;98619.97;;;13.71;57.46
21988;BME280;11158;53.404;-1.510;2022-11-15T05:00:05;98626.38;;;13.87;56.80
21988;BME280;11158;53.404;-1.510;2022-11-15T05:02:31;98629.56;;;13.83;57.24
21988;BME280;11158;53.404;-1.510;2022-11-15T05:05:15;98623.19;;;13.90;57.49
21988;BME280;11158;53.404;-1.510;2022-11-15T05:07:41;98618.47;;;13.07;59.89
21988;BME280;11158;53.404;-1.510;2022-11-15T05:10:07;98617.16;;;13.10;59.90
21988;BME280;11158;53.404;-1.510;2022-11-15T05:12:33;98603.69;;;13.38;59.94
21988;BME280;11158;53.404;-1.510;2022-11-15T05:14:58;98609.94;;;13.44;59.56
21988;BME280;11158;53.404;-1.510;2022-11-15T05:17:24;98606.34;;;13.05;60.48
21988;BME280;11158;53.404;-1.510;2022-11-15T05:19:50;98592.16;;;13.38;60.09
21988;BME280;11158;53.404;-1.510;2022-11-15T05:22:18;98598.50;;;13.32;60.29
21988;BME280;11158;53.404;-1.510;2022-11-15T05:24:44;98587.75;;;12.98;61.69
21988;BME280;11158;53.404;-1.510;2022-11-15T05:27:09;98586.38;;;12.95;62.15
21988;BME280;11158;53.404;-1.510;2022-11-15T05:29:35;98579.03;;;13.25;61.57
21988;BME280;11158;53.404;-1.510;2022-11-15T05:32:03;98568.47;;;13.18;61.86
21988;BME280;11158;53.404;-1.510;2022-11-15T05:34:30;98564.81;;;13.24;62.06
21988;BME280;11158;53.404;-1.510;2022-11-15T05:36:58;98568.63;;;13.45;61.11
21988;BME280;11158;53.404;-1.510;2022-11-15T05:39:24;98559.66;;;13.56;61.32
21988;BME280;11158;53.404;-1.510;2022-11-15T05:41:55;98548.00;;;13.12;61.83
21988;BME280;11158;53.404;-1.510;2022-11-15T05:44:22;98544.50;;;13.28;61.83
21988;BME280;11158;53.404;-1.510;2022-11-15T05:46:50;98542.34;;;13.69;61.30
21988;BME280;11158;53.404;-1.510;2022-11-15T05:49:20;98534.59;;;13.51;61.21
21988;BME280;11158;53.404;-1.510;2022-11-15T05:51:48;98539.50;;;13.98;60.50
21988;BME280;11158;53.404;-1.510;2022-11-15T05:54:15;98533.44;;;13.64;60.66
21988;BME280;11158;53.404;-1.510;2022-11-15T05:56:42;98525.81;;;13.55;61.84
21988;BME280;11158;53.404;-1.510;2022-11-15T05:59:09;98532.13;;;13.88;60.71
21988;BME280;11158;53.404;-1.510;2022-11-15T06:01:36;98523.66;;;13.74;61.30
21988;BME280;11158;53.404;-1.510;2022-11-15T06:04:03;98514.94;;;12.89;64.08
21988;BME280;11158;53.404;-1.510;2022-11-15T06:06:30;98522.75;;;13.47;62.57
21988;BME280;11158;53.404;-1.510;2022-11-15T06:08:55;98512.63;;;13.98;61.42
21988;BME280;11158;53.404;-1.510;2022-11-15T06:11:21;98509.94;;;13.76;61.29
21988;BME280;11158;53.404;-1.510;2022-11-15T06:13:47;98499.84;;;13.39;62.59
21988;BME280;11158;53.404;-1.510;2022-11-15T06:16:13;98497.41;;;13.20;63.86
21988;BME280;11158;53.404;-1.510;2022-11-15T06:18:39;98484.88;;;13.43;62.74
21988;BME280;11158;53.404;-1.510;2022-11-15T06:21:05;98485.38;;;12.33;66.46
21988;BME280;11158;53.404;-1.510;2022-11-15T06:23:33;98487.66;;;12.58;66.10
21988;BME280;11158;53.404;-1.510;2022-11-15T06:26:01;98476.38;;;12.40;66.49
21988;BME280;11158;53.404;-1.510;2022-11-15T06:28:28;98476.81;;;12.87;65.14
21988;BME280;11158;53.404;-1.510;2022-11-15T06:30:54;98468.78;;;13.26;64.28
21988;BME280;11158;53.404;-1.510;2022-11-15T06:33:20;98470.72;;;13.09;64.92
21988;BME280;11158;53.404;-1.510;2022-11-15T06:35:46;98463.25;;;13.55;63.25
21988;BME280;11158;53.404;-1.510;2022-11-15T06:38:12;98463.69;;;13.47;63.44
21988;BME280;11158;53.404;-1.510;2022-11-15T06:40:39;98451.25;;;13.62;62.89
21988;BME280;11158;53.404;-1.510;2022-11-15T06:43:05;98450.13;;;13.31;63.58
21988;BME280;11158;53.404;-1.510;2022-11-15T06:45:31;98446.38;;;12.76;65.75
21988;BME280;11158;53.404;-1.510;2022-11-15T06:47:58;98447.72;;;13.35;64.07
21988;BME280;11158;53.404;-1.510;2022-11-15T06:50:24;98446.41;;;13.37;63.82
21988;BME280;11158;53.404;-1.510;2022-11-15T06:52:50;98445.03;;;13.13;64.91
21988;BME280;11158;53.404;-1.510;2022-11-15T06:55:16;98440.41;;;12.91;65.74
21988;BME280;11158;53.404;-1.510;2022-11-15T06:57:51;98439.72;;;12.79;66.57
21988;BME280;11158;53.404;-1.510;2022-11-15T07:00:19;98434.16;;;13.25;64.83
21988;BME280;11158;53.404;-1.510;2022-11-15T07:02:45;98428.09;;;13.29;64.55
21988;BME280;11158;53.404;-1.510;2022-11-15T07:05:12;98422.84;;;12.62;66.50
21988;BME280;11158;53.404;-1.510;2022-11-15T07:07:38;98419.78;;;12.53;67.58
21988;BME280;11158;53.404;-1.510;2022-11-15T07:10:05;98408.84;;;13.15;65.93
21988;BME280;11158;53.404;-1.510;2022-11-15T07:12:31;98409.88;;;12.92;66.03
21988;BME280;11158;53.404;-1.510;2022-11-15T07:14:56;98405.06;;;12.39;67.86
21988;BME280;11158;53.404;-1.510;2022-11-15T07:17:22;98400.00;;;13.37;65.75
21988;BME280;11158;53.404;-1.510;2022-11-15T07:19:48;98401.78;;;13.53;64.13
21988;BME280;11158;53.404;-1.510;2022-11-15T07:22:13;98383.78;;;13.81;63.57
21988;BME280;11158;53.404;-1.510;2022-11-15T07:24:39;98389.88;;;13.98;62.63
21988;BME280;11158;53.404;-1.510;2022-11-15T07:27:05;98384.81;;;14.02;62.15
21988;BME280;11158;53.404;-1.510;2022-11-15T07:29:31;98380.72;;;13.99;62.61
21988;BME280;11158;53.404;-1.510;2022-11-15T07:31:56;98389.63;;;12.63;65.57
21988;BME280;11158;53.404;-1.510;2022-11-15T07:34:22;98386.44;;;13.49;64.68
21988;BME280;11158;53.404;-1.510;2022-11-15T07:36:49;98374.09;;;13.75;63.92
21988;BME280;11158;53.404;-1.510;2022-11-15T07:39:14;98382.09;;;13.43;64.65
21988;BME280;11158;53.404;-1.510;2022-11-15T07:41:40;98370.41;;;13.54;64.22
21988;BME280;11158;53.404;-1.510;2022-11-15T07:44:06;98365.09;;;13.37;64.65
21988;BME280;11158;53.404;-1.510;2022-11-15T07:46:32;98371.53;;;12.92;66.65
21988;BME280;11158;53.404;-1.510;2022-11-15T07:48:57;98372.59;;;13.35;65.67
21988;BME280;11158;53.404;-1.510;2022-11-15T07:51:23;98355.06;;;13.49;64.24
21988;BME280;11158;53.404;-1.510;2022-11-15T07:53:49;98371.53;;;13.36;65.26
21988;BME280;11158;53.404;-1.510;2022-11-15T07:56:15;98362.22;;;13.44;65.32
21988;BME280;11158;53.404;-1.510;2022-11-15T07:58:41;98362.09;;;14.20;63.21
21988;BME280;11158;53.404;-1.510;2022-11-15T08:01:09;98356.47;;;14.21;62.76
21988;BME280;11158;53.404;-1.510;2022-11-15T08:03:35;98345.19;;;13.87;63.26
21988;BME280;11158;53.404;-1.510;2022-11-15T08:06:01;98345.47;;;14.23;63.26
21988;BME280;11158;53.404;-1.510;2022-11-15T08:08:27;98345.28;;;14.35;62.44
21988;BME280;11158;53.404;-1.510;2022-11-15T08:10:53;98342.16;;;14.11;63.31
21988;BME280;11158;53.404;-1.510;2022-11-15T08:13:28;98338.97;;;14.14;63.60
21988;BME280;11158;53.404;-1.510;2022-11-15T08:16:02;98331.81;;;14.72;62.10
21988;BME280;11158;53.404;-1.510;2022-11-15T08:18:28;98325.94;;;13.95;63.36
21988;BME280;11158;53.404;-1.510;2022-11-15T08:20:59;98329.38;;;14.28;63.53
21988;BME280;11158;53.404;-1.510;2022-11-15T08:23:26;98330.16;;;14.61;61.97
21988;BME280;11158;53.404;-1.510;2022-11-15T08:25:51;98323.69;;;14.19;63.20
21988;BME280;11158;53.404;-1.510;2022-11-15T08:28:17;98327.69;;;14.54;62.44
21988;BME280;11158;53.404;-1.510;2022-11-15T08:30:43;98326.31;;;14.52;62.81
21988;BME280;11158;53.404;-1.510;2022-11-15T08:33:12;98326.41;;;14.67;62.02
21988;BME280;11158;53.404;-1.510;2022-11-15T08:35:40;98314.47;;;15.00;61.08
21988;BME280;11158;53.404;-1.510;2022-11-15T08:38:06;98314.69;;;14.41;62.77
21988;BME280;11158;53.404;-1.510;2022-11-15T08:40:31;98308.78;;;14.44;62.94
21988;BME280;11158;53.404;-1.510;2022-11-15T08:42:57;98308.47;;;14.35;63.42
21988;BME280;11158;53.404;-1.510;2022-11-15T08:45:24;98302.00;;;14.79;62.01
21988;BME280;11158;53.404;-1.510;2022-11-15T08:47:49;98292.34;;;14.83;61.79
21988;BME280;11158;53.404;-1.510;2022-11-15T08:50:15;98289.06;;;14.71;62.02
21988;BME280;11158;53.404;-1.510;2022-11-15T08:52:42;98286.19;;;14.93;61.70
21988;BME280;11158;53.404;-1.510;2022-11-15T08:55:08;98278.66;;;14.84;61.91
21988;BME280;11158;53.404;-1.510;2022-11-15T08:57:34;98276.75;;;14.85;61.91
21988;BME280;11158;53.404;-1.510;2022-11-15T08:59:59;98262.56;;;15.05;61.39
21988;BME280;11158;53.404;-1.510;2022-11-15T09:02:26;98263.13;;;15.22;60.95
21988;BME280;11158;53.404;-1.510;2022-11-15T09:04:51;98262.50;;;14.84;61.90
21988;BME280;11158;53.404;-1.510;2022-11-15T09:07:17;98257.38;;;14.78;61.82
21988;BME280;11158;53.404;-1.510;2022-11-15T09:09:43;98251.13;;;14.14;63.68
21988;BME280;11158;53.404;-1.510;2022-11-15T09:12:09;98239.81;;;14.60;63.41
21988;BME280;11158;53.404;-1.510;2022-11-15T09:14:35;98246.09;;;14.33;63.71
21988;BME280;11158;53.404;-1.510;2022-11-15T09:17:02;98229.38;;;14.79;62.25
21988;BME280;11158;53.404;-1.510;2022-11-15T09:19:28;98225.81;;;14.58;62.75
21988;BME280;11158;53.404;-1.510;2022-11-15T09:21:53;98226.69;;;14.16;64.14
21988;BME280;11158;53.404;-1.510;2022-11-15T09:24:19;98212.41;;;14.63;63.38
21988;BME280;11158;53.404;-1.510;2022-11-15T09:26:45;98219.31;;;14.49;63.64
21988;BME280;11158;53.404;-1.510;2022-11-15T09:29:11;98204.34;;;14.68;63.13
21988;BME280;11158;53.404;-1.510;2022-11-15T09:31:36;98199.66;;;14.43;63.92
21988;BME280;11158;53.404;-1.510;2022-11-15T09:34:02;98195.38;;;14.52;63.24
21988;BME280;11158;53.404;-1.510;2022-11-15T09:36:28;98193.34;;;13.69;67.02
21988;BME280;11158;53.404;-1.510;2022-11-15T09:38:55;98189.41;;;13.82;66.38
21988;BME280;11158;53.404;-1.510;2022-11-15T09:44:42;98186.50;;;14.46;64.28
21988;BME280;11158;53.404;-1.510;2022-11-15T09:47:45;98175.75;;;13.89;66.68
21988;BME280;11158;53.404;-1.510;2022-11-15T09:50:31;98176.47;;;14.27;66.16
21988;BME280;11158;53.404;-1.510;2022-11-15T09:52:58;98159.31;;;14.33;65.09
21988;BME280;11158;53.404;-1.510;2022-11-15T09:55:37;98154.19;;;14.26;65.54
21988;BME280;11158;53.404;-1.510;2022-11-15T09:58:23;98146.69;;;14.33;65.82
21988;BME280;11158;53.404;-1.510;2022-11-15T10:00:52;98152.25;;;14.16;65.97
21988;BME280;11158;53.404;-1.510;2022-11-15T10:03:28;98140.66;;;14.79;64.47
21988;BME280;11158;53.404;-1.510;2022-11-15T10:06:00;98135.25;;;14.79;63.32
21988;BME280;11158;53.404;-1.510;2022-11-15T10:09:31;98132.06;;;14.87;63.66
21988;BME280;11158;53.404;-1.510;2022-11-15T10:11:32;98133.84;;;14.51;64.63
21988;BME280;11158;53.404;-1.510;2022-11-15T10:14:08;98124.31;;;14.17;65.57
21988;BME280;11158;53.404;-1.510;2022-11-15T10:22:27;98111.47;;;14.30;65.81
21988;BME280;11158;53.404;-1.510;2022-11-15T10:25:23;98106.59;;;13.26;69.25
21988;BME280;11158;53.404;-1.510;2022-11-15T10:28:14;98102.00;;;14.12;67.85
21988;BME280;11158;53.404;-1.510;2022-11-15T10:30:45;98099.22;;;14.70;65.00
21988;BME280;11158;53.404;-1.510;2022-11-15T10:33:34;98083.59;;;14.56;66.33
21988;BME280;11158;53.404;-1.510;2022-11-15T10:36:21;98077.16;;;14.68;65.75
21988;BME280;11158;53.404;-1.510;2022-11-15T10:41:35;98064.78;;;13.73;67.85
21988;BME280;11158;53.404;-1.510;2022-11-15T10:44:14;98064.53;;;13.74;68.13
21988;BME280;11158;53.404;-1.510;2022-11-15T10:46:46;98064.91;;;13.46;69.69
21988;BME280;11158;53.404;-1.510;2022-11-15T10:49:26;98045.84;;;14.05;67.80
21988;BME280;11158;53.404;-1.510;2022-11-15T10:51:57;98035.19;;;13.57;69.75
21988;BME280;11158;53.404;-1.510;2022-11-15T10:57:20;98025.00;;;13.65;70.04
21988;BME280;11158;53.404;-1.510;2022-11-15T10:59:52;98019.53;;;14.12;68.71
21988;BME280;11158;53.404;-1.510;2022-11-15T11:02:40;98018.75;;;14.22;68.27
21988;BME280;11158;53.404;-1.510;2022-11-15T11:05:32;98020.59;;;14.06;69.30
21988;BME280;11158;53.404;-1.510;2022-11-15T11:08:23;98013.63;;;14.10;68.20
21988;BME280;11158;53.404;-1.510;2022-11-15T11:10:56;98012.66;;;14.83;66.33
21988;BME280;11158;53.404;-1.510;2022-11-15T11:13:31;98009.66;;;14.54;66.78
21988;BME280;11158;53.404;-1.510;2022-11-15T11:27:20;97971.47;;;14.52;67.59
21988;BME280;11158;53.404;-1.510;2022-11-15T11:37:52;97942.19;;;14.76;65.99
21988;BME280;11158;53.404;-1.510;2022-11-15T11:40:32;97938.34;;;15.18;66.14
21988;BME280;11158;53.404;-1.510;2022-11-15T11:43:07;97937.59;;;14.40;67.60
21988;BME280;11158;53.404;-1.510;2022-11-15T11:51:08;97921.78;;;14.18;69.03
21988;BME280;11158;53.404;-1.510;2022-11-15T11:53:42;97929.00;;;14.79;67.32
21988;BME280;11158;53.404;-1.510;2022-11-15T11:56:43;97912.63;;;14.50;68.23
21988;BME280;11158;53.404;-1.510;2022-11-15T11:59:22;97901.88;;;14.30;68.90
21988;BME280;11158;53.404;-1.510;2022-11-15T12:01:51;97900.72;;;14.97;66.71
21988;BME280;11158;53.404;-1.510;2022-11-15T12:04:30;97900.78;;;14.36;68.19
21988;BME280;11158;53.404;-1.510;2022-11-15T12:06:59;97901.75;;;15.12;66.73
21988;BME280;11158;53.404;-1.510;2022-11-15T12:12:07;97886.22;;;14.93;66.44
21988;BME280;11158;53.404;-1.510;2022-11-15T12:14:45;97898.41;;;14.60;67.17
21988;BME280;11158;53.404;-1.510;2022-11-15T12:17:11;97898.81;;;15.08;66.63
21988;BME280;11158;53.404;-1.510;2022-11-15T12:19:41;97897.25;;;14.92;66.73
21988;BME280;11158;53.404;-1.510;2022-11-15T12:25:13;97892.47;;;14.63;68.51
21988;BME280;11158;53.404;-1.510;2022-11-15T12:27:44;97881.94;;;14.82;67.08
21988;BME280;11158;53.404;-1.510;2022-11-15T12:30:17;97883.53;;;14.93;67.13
21988;BME280;11158;53.404;-1.510;2022-11-15T12:33:00;97888.44;;;14.71;68.09
21988;BME280;11158;53.404;-1.510;2022-11-15T12:35:35;97881.94;;;14.87;67.53
21988;BME280;11158;53.404;-1.510;2022-11-15T12:38:02;97874.63;;;15.03;66.87
21988;BME280;11158;53.404;-1.510;2022-11-15T12:43:39;97871.66;;;15.10;67.64
21988;BME280;11158;53.404;-1.510;2022-11-15T12:46:18;97868.06;;;15.35;66.46
21988;BME280;11158;53.404;-1.510;2022-11-15T12:51:13;97850.94;;;15.60;65.92
21988;BME280;11158;53.404;-1.510;2022-11-15T12:53:39;97851.78;;;15.50;65.39
21988;BME280;11158;53.404;-1.510;2022-11-15T12:58:58;97839.78;;;15.82;64.90
21988;BME280;11158;53.404;-1.510;2022-11-15T13:07:04;97825.78;;;15.80;64.59
21988;BME280;11158;53.404;-1.510;2022-11-15T13:12:10;97816.09;;;15.39;65.35
21988;BME280;11158;53.404;-1.510;2022-11-15T13:14:45;97811.53;;;15.29;66.26
21988;BME280;11158;53.404;-1.510;2022-11-15T13:17:16;97814.63;;;15.52;65.32
21988;BME280;11158;53.404;-1.510;2022-11-15T13:19:43;97816.38;;;15.27;66.84
21988;BME280;11158;53.404;-1.510;2022-11-15T13:22:09;97814.53;;;15.28;66.19
21988;BME280;11158;53.404;-1.510;2022-11-15T13:24:54;97804.06;;;15.16;66.90
21988;BME280;11158;53.404;-1.510;2022-11-15T13:27:21;97798.69;;;15.21;66.92
21988;BME280;11158;53.404;-1.510;2022-11-15T13:29:46;97790.97;;;15.88;65.07
21988;BME280;11158;53.404;-1.510;2022-11-15T13:32:13;97784.78;;;15.88;64.81
21988;BME280;11158;53.404;-1.510;2022-11-15T13:34:45;97778.66;;;16.11;64.04
21988;BME280;11158;53.404;-1.510;2022-11-15T13:39:49;97786.44;;;15.84;64.92
21988;BME280;11158;53.404;-1.510;2022-11-15T13:42:16;97776.97;;;15.86;64.76
21988;BME280;11158;53.404;-1.510;2022-11-15T13:45:04;97779.94;;;15.85;64.61
21988;BME280;11158;53.404;-1.510;2022-11-15T13:47:30;97775.78;;;15.63;65.25
21988;BME280;11158;53.404;-1.510;2022-11-15T13:49:59;97768.25;;;15.65;65.19
21988;BME280;11158;53.404;-1.510;2022-11-15T13:52:31;97767.16;;;15.66;65.04
21988;BME280;11158;53.404;-1.510;2022-11-15T13:55:01;97769.69;;;15.92;65.08
21988;BME280;11158;53.404;-1.510;2022-11-15T13:57:42;97759.44;;;16.47;63.32
21988;BME280;11158;53.404;-1.510;2022-11-15T14:00:26;97744.31;;;16.46;63.52
21988;BME280;11158;53.404;-1.510;2022-11-15T14:02:54;97744.91;;;16.43;63.21
21988;BME280;11158;53.404;-1.510;2022-11-15T14:05:24;97733.53;;;16.70;62.43
21988;BME280;11158;53.404;-1.510;2022-11-15T14:08:02;97729.78;;;16.90;61.94
21988;BME280;11158;53.404;-1.510;2022-11-15T14:10:36;97730.38;;;16.87;61.64
21988;BME280;11158;53.404;-1.510;2022-11-15T14:13:09;97738.69;;;16.67;62.44
21988;BME280;11158;53.404;-1.510;2022-11-15T14:15:38;97722.22;;;16.68;62.14
21988;BME280;11158;53.404;-1.510;2022-11-15T14:18:05;97716.16;;;16.58;62.61
21988;BME280;11158;53.404;-1.510;2022-11-15T14:20:37;97701.28;;;16.60;62.53
21988;BME280;11158;53.404;-1.510;2022-11-15T14:23:04;97712.44;;;16.96;61.67
21988;BME280;11158;53.404;-1.510;2022-11-15T14:25:31;97731.34;;;16.72;61.40
21988;BME280;11158;53.404;-1.510;2022-11-15T14:30:39;97734.50;;;16.55;62.49
21988;BME280;11158;53.404;-1.510;2022-11-15T14:35:52;97738.75;;;16.62;62.26
21988;BME280;11158;53.404;-1.510;2022-11-15T14:38:18;97742.22;;;16.43;62.87
21988;BME280;11158;53.404;-1.510;2022-11-15T14:40:44;97742.16;;;16.48;62.84
21988;BME280;11158;53.404;-1.510;2022-11-15T14:43:10;97733.59;;;16.41;63.09
21988;BME280;11158;53.404;-1.510;2022-11-15T14:45:37;97728.31;;;16.07;63.97